Time;durP1;ratioP1;P1;durP2;ratioP2;P2;SDS_P1;SDS_P2;PMS_P1;PMS_P2;Temp;Humidity;BMP_temperature;BMP_pressure;BME280_temperature;BME280_humidity;BME280_pressure;Samples;Min_cycle;Max_cycle;Signal;HPM_P1;HPM_P2
2023/10/24 00:02:15;;;;;;;1.30;1.30;;;19.30;77.00;;;;;;5110492;27;43378;-69
2023/10/24 00:04:43;;;;;;;1.03;0.93;;;19.40;76.80;;;;;;5111419;27;43432;-69
2023/10/24 00:07:11;;;;;;;1.20;1.20;;;19.30;76.50;;;;;;5108059;27;44058;-69
2023/10/24 00:09:39;;;;;;;1.37;1.37;;;19.30;76.90;;;;;;5111051;27;43418;-69
2023/10/24 00:12:09;;;;;;;1.10;1.10;;;19.30;76.80;;;;;;5110314;27;43409;-69
2023/10/24 00:14:37;;;;;;;1.20;1.20;;;19.30;76.80;;;;;;5109344;27;43454;-69
2023/10/24 00:17:05;;;;;;;1.10;1.10;;;19.20;76.60;;;;;;5110134;27;43885;-70
2023/10/24 00:19:34;;;;;;;1.10;1.10;;;19.20;76.70;;;;;;5110032;27;43517;-70
2023/10/24 00:22:02;;;;;;;1.30;1.30;;;19.20;76.90;;;;;;5109738;27;43436;-69
2023/10/24 00:24:30;;;;;;;1.20;1.20;;;19.10;77.30;;;;;;5111095;27;43957;-69
2023/10/24 00:26:58;;;;;;;1.27;1.27;;;19.20;77.20;;;;;;5110263;27;44058;-69
2023/10/24 00:29:28;;;;;;;1.20;1.20;;;19.30;77.00;;;;;;5107518;27;44391;-69
2023/10/24 00:31:56;;;;;;;1.10;1.10;;;19.30;76.70;;;;;;5109093;27;43437;-69
2023/10/24 00:34:24;;;;;;;1.10;1.10;;;19.30;76.50;;;;;;5109013;27;44006;-69
2023/10/24 00:36:52;;;;;;;1.30;1.30;;;19.30;76.90;;;;;;5104815;27;45856;-69
2023/10/24 00:39:20;;;;;;;1.17;1.17;;;19.30;77.00;;;;;;5108404;27;44735;-69
2023/10/24 00:41:48;;;;;;;1.00;1.00;;;19.20;76.70;;;;;;5110480;27;43559;-69
2023/10/24 00:44:16;;;;;;;1.10;1.10;;;19.20;76.60;;;;;;5110868;27;43497;-69
2023/10/24 00:46:45;;;;;;;1.10;1.10;;;19.20;76.70;;;;;;5108442;27;44989;-69
2023/10/24 00:49:13;;;;;;;0.90;0.90;;;19.10;76.80;;;;;;5108203;27;45147;-69
2023/10/24 00:51:42;;;;;;;1.00;1.00;;;19.10;77.30;;;;;;5108850;27;43423;-69
2023/10/24 00:54:09;;;;;;;1.17;1.17;;;19.20;77.50;;;;;;5109049;27;43445;-70
2023/10/24 00:56:38;;;;;;;1.10;1.10;;;19.20;77.00;;;;;;5109699;27;43932;-71
2023/10/24 00:59:06;;;;;;;1.00;1.00;;;19.30;76.80;;;;;;5107507;27;43726;-71
2023/10/24 01:01:34;;;;;;;1.10;1.10;;;19.40;76.60;;;;;;5107436;27;43476;-70
2023/10/24 01:04:04;;;;;;;1.20;1.20;;;19.30;76.60;;;;;;5107484;27;43411;-71
2023/10/24 01:06:33;;;;;;;1.13;1.13;;;19.30;76.80;;;;;;5106508;27;45893;-71
2023/10/24 01:09:01;;;;;;;1.10;1.10;;;19.30;76.70;;;;;;5107317;27;44997;-70
2023/10/24 01:11:29;;;;;;;1.10;1.10;;;19.30;76.70;;;;;;5106968;27;43954;-70
2023/10/24 01:13:59;;;;;;;1.20;1.20;;;19.20;76.60;;;;;;5107317;27;43488;-71
2023/10/24 01:16:27;;;;;;;1.13;1.13;;;19.20;76.80;;;;;;5106519;27;46082;-71
2023/10/24 01:18:55;;;;;;;1.10;1.10;;;19.10;77.30;;;;;;5106340;27;45054;-71
2023/10/24 01:21:24;;;;;;;1.00;1.00;;;19.10;77.30;;;;;;5108871;27;43371;-71
2023/10/24 01:23:54;;;;;;;1.20;1.20;;;19.10;77.10;;;;;;5109121;27;43702;-70
2023/10/24 01:26:22;;;;;;;1.00;1.00;;;19.10;77.10;;;;;;5107109;27;45921;-70
2023/10/24 01:28:50;;;;;;;1.10;1.10;;;19.10;77.20;;;;;;5107075;27;44828;-71
2023/10/24 01:31:18;;;;;;;1.20;1.20;;;19.10;77.50;;;;;;5106728;27;43864;-70
2023/10/24 01:33:46;;;;;;;1.20;1.20;;;19.10;77.80;;;;;;5107584;27;43525;-70
2023/10/24 01:36:14;;;;;;;1.10;1.10;;;19.20;77.50;;;;;;5108338;27;44054;-70
2023/10/24 01:38:42;;;;;;;1.00;1.00;;;19.30;77.00;;;;;;5106948;27;44582;-70
2023/10/24 01:41:11;;;;;;;1.17;1.17;;;19.30;76.70;;;;;;5106857;27;43787;-70
2023/10/24 01:43:39;;;;;;;1.03;1.03;;;19.40;76.60;;;;;;5108470;27;43403;-70
2023/10/24 01:46:07;;;;;;;1.00;1.00;;;19.30;76.70;;;;;;5106671;27;46311;-70
2023/10/24 01:48:35;;;;;;;1.10;1.10;;;19.30;76.80;;;;;;5107163;27;44491;-70
2023/10/24 01:51:03;;;;;;;1.20;1.20;;;19.30;76.60;;;;;;5106853;27;43349;-70
2023/10/24 01:53:31;;;;;;;1.00;1.00;;;19.30;76.60;;;;;;5108800;27;43490;-70
2023/10/24 01:55:59;;;;;;;1.20;1.20;;;19.20;76.60;;;;;;5106631;27;45357;-71
2023/10/24 01:58:29;;;;;;;1.20;1.20;;;19.20;76.80;;;;;;5106981;27;43442;-71
2023/10/24 02:00:57;;;;;;;0.97;0.97;;;19.10;77.30;;;;;;5107497;27;43530;-71
2023/10/24 02:03:25;;;;;;;1.03;1.03;;;19.20;77.20;;;;;;5110434;27;43493;-71
2023/10/24 02:05:53;;;;;;;0.90;0.90;;;19.20;77.10;;;;;;5110918;27;45719;-70
2023/10/24 02:08:21;;;;;;;1.00;1.00;;;19.10;77.00;;;;;;5111480;27;44811;-69
2023/10/24 02:10:50;;;;;;;1.10;1.10;;;19.10;77.20;;;;;;5111879;27;43643;-70
2023/10/24 02:13:18;;;;;;;1.23;1.23;;;19.10;77.70;;;;;;5111217;27;43494;-69
2023/10/24 02:15:49;;;;;;;1.00;1.00;;;19.10;77.60;;;;;;5108688;27;45408;-67
2023/10/24 02:18:17;;;;;;;1.00;1.00;;;19.20;77.20;;;;;;5110078;27;45173;-66
2023/10/24 02:20:45;;;;;;;1.10;1.10;;;19.30;76.70;;;;;;5110269;27;43427;-66
2023/10/24 02:23:13;;;;;;;1.00;1.00;;;19.40;76.30;;;;;;5110942;27;43449;-67
2023/10/24 02:25:41;;;;;;;0.97;0.97;;;19.50;76.20;;;;;;5110624;27;46077;-67
2023/10/24 02:28:09;;;;;;;1.00;1.00;;;19.40;76.10;;;;;;5112103;27;43416;-68
2023/10/24 02:30:38;;;;;;;0.90;0.90;;;19.40;76.20;;;;;;5110193;27;43434;-67
2023/10/24 02:33:07;;;;;;;0.90;0.90;;;19.30;76.40;;;;;;5110964;27;43451;-66
2023/10/24 02:35:35;;;;;;;1.20;1.20;;;19.20;76.70;;;;;;5111626;27;43954;-66
2023/10/24 02:38:03;;;;;;;0.87;0.87;;;19.20;77.80;;;;;;5111905;27;43463;-67
2023/10/24 02:40:31;;;;;;;1.17;1.17;;;19.20;76.90;;;;;;5110068;27;43373;-66
2023/10/24 02:42:59;;;;;;;0.90;0.90;;;19.20;76.90;;;;;;5129581;27;43579;-66
2023/10/24 02:45:28;;;;;;;1.20;1.20;;;19.10;77.00;;;;;;5110579;27;45857;-66
2023/10/24 02:47:56;;;;;;;0.97;0.97;;;19.10;77.10;;;;;;5110190;27;44716;-67
2023/10/24 02:50:25;;;;;;;1.10;1.10;;;19.10;77.70;;;;;;5110041;27;43357;-67
2023/10/24 02:52:53;;;;;;;0.83;0.83;;;19.20;77.60;;;;;;5111947;27;43375;-66
2023/10/24 02:55:21;;;;;;;1.10;1.10;;;19.20;77.10;;;;;;5110398;27;45664;-67
2023/10/24 02:57:49;;;;;;;1.03;1.03;;;19.30;77.00;;;;;;5110214;27;43569;-67
2023/10/24 03:00:18;;;;;;;0.90;0.90;;;19.30;76.70;;;;;;5109904;27;43411;-66
2023/10/24 03:02:46;;;;;;;0.90;0.90;;;19.20;76.90;;;;;;5111370;27;43420;-67
2023/10/24 03:05:15;;;;;;;1.10;1.10;;;19.20;77.00;;;;;;5109971;27;45739;-66
2023/10/24 03:07:44;;;;;;;1.03;1.03;;;19.30;76.90;;;;;;5110848;27;43417;-67
2023/10/24 03:10:12;;;;;;;0.97;0.97;;;19.20;76.70;;;;;;5109858;27;43533;-67
2023/10/24 03:12:40;;;;;;;1.00;1.00;;;19.20;76.80;;;;;;5109294;27;43556;-66
2023/10/24 03:15:09;;;;;;;1.10;1.10;;;19.10;76.90;;;;;;5109817;27;45709;-66
2023/10/24 03:17:39;;;;;;;1.00;1.00;;;19.10;77.50;;;;;;5110613;27;43437;-70
2023/10/24 03:20:08;;;;;;;1.20;1.20;;;19.10;77.30;;;;;;5109421;27;43446;-69
2023/10/24 03:22:36;;;;;;;1.00;1.00;;;19.10;77.20;;;;;;5110590;27;43452;-69
2023/10/24 03:25:08;;;;;;;0.97;0.97;;;19.10;77.20;;;;;;5108847;27;44730;-69
2023/10/24 03:27:36;;;;;;;1.10;1.10;;;19.10;78.00;;;;;;5109042;27;44408;-69
2023/10/24 03:30:04;;;;;;;1.00;1.00;;;19.10;77.90;;;;;;5110228;27;43824;-69
2023/10/24 03:32:32;;;;;;;1.00;1.00;;;19.10;77.80;;;;;;5126130;27;43467;-69
2023/10/24 03:35:02;;;;;;;1.00;1.00;;;19.20;77.40;;;;;;5102145;27;45997;-69
2023/10/24 03:37:30;;;;;;;0.90;0.90;;;19.30;77.00;;;;;;5109009;27;43382;-69
2023/10/24 03:39:58;;;;;;;1.00;1.00;;;19.30;76.70;;;;;;5103677;27;43867;-69
2023/10/24 03:42:27;;;;;;;1.00;1.00;;;19.30;76.60;;;;;;5107184;27;44004;-69
2023/10/24 03:44:55;;;;;;;1.00;1.00;;;19.30;77.00;;;;;;5104933;27;43602;-69
2023/10/24 03:47:23;;;;;;;0.90;0.90;;;19.30;77.00;;;;;;5105671;27;43350;-69
2023/10/24 03:49:51;;;;;;;1.00;1.00;;;19.20;76.70;;;;;;5107610;27;43935;-69
2023/10/24 03:52:19;;;;;;;0.90;0.90;;;19.20;76.70;;;;;;5102608;27;43449;-69
2023/10/24 03:54:47;;;;;;;1.10;1.10;;;19.20;76.80;;;;;;5103149;27;43934;-69
2023/10/24 03:57:15;;;;;;;0.90;0.90;;;19.10;77.10;;;;;;5103432;27;43492;-69
2023/10/24 03:59:45;;;;;;;1.07;1.07;;;19.10;77.40;;;;;;5108035;27;43429;-69
2023/10/24 04:02:13;;;;;;;0.90;0.90;;;19.20;77.20;;;;;;5101976;27;43461;-69
2023/10/24 04:04:41;;;;;;;0.80;0.80;;;19.10;77.10;;;;;;5108718;27;44038;-69
2023/10/24 04:07:09;;;;;;;0.97;0.97;;;19.10;77.10;;;;;;5099101;27;43399;-69
2023/10/24 04:09:37;;;;;;;0.90;0.90;;;19.10;77.20;;;;;;5109424;27;43374;-69
2023/10/24 04:12:07;;;;;;;0.90;0.90;;;19.10;77.70;;;;;;5108393;27;44009;-69
2023/10/24 04:14:35;;;;;;;0.90;0.90;;;19.10;77.50;;;;;;5109169;27;43840;-69
2023/10/24 04:17:05;;;;;;;1.00;1.00;;;19.20;77.10;;;;;;5109404;27;43369;-69
2023/10/24 04:19:48;;;;;;;0.90;0.90;;;19.30;76.80;;;;;;5085514;27;43444;-69
2023/10/24 04:22:16;;;;;;;1.00;1.00;;;19.30;76.50;;;;;;5109647;27;44143;-69
2023/10/24 04:24:44;;;;;;;1.10;1.10;;;19.30;76.60;;;;;;5108217;27;43897;-69
2023/10/24 04:27:12;;;;;;;0.93;0.93;;;19.40;76.90;;;;;;5108793;27;43287;-70
2023/10/24 04:29:42;;;;;;;0.90;0.90;;;19.30;76.60;;;;;;5108539;27;43429;-71
2023/10/24 04:32:11;;;;;;;0.90;0.90;;;19.30;76.60;;;;;;5109629;27;44175;-71
2023/10/24 04:34:39;;;;;;;0.93;0.93;;;19.30;76.70;;;;;;5109400;27;43613;-71
2023/10/24 04:37:07;;;;;;;1.00;1.00;;;19.20;76.70;;;;;;5109628;27;43485;-71
2023/10/24 04:39:35;;;;;;;1.10;1.10;;;19.20;77.30;;;;;;5109443;27;43367;-71
2023/10/24 04:42:04;;;;;;;1.10;1.10;;;19.20;77.10;;;;;;5107786;27;43981;-71
2023/10/24 04:44:32;;;;;;;1.00;1.00;;;19.20;77.00;;;;;;5109179;27;43614;-71
2023/10/24 04:47:00;;;;;;;0.90;0.90;;;19.20;77.00;;;;;;5107831;27;44584;-70
2023/10/24 04:49:29;;;;;;;0.90;0.90;;;19.10;77.00;;;;;;5106409;27;43998;-71
2023/10/24 04:51:57;;;;;;;1.00;1.00;;;19.10;77.40;;;;;;5106380;27;43403;-71
2023/10/24 04:54:25;;;;;;;0.90;0.90;;;19.10;77.60;;;;;;5109178;27;43612;-71
2023/10/24 04:56:55;;;;;;;0.97;0.97;;;19.10;77.30;;;;;;5109048;27;43433;-71
2023/10/24 04:59:23;;;;;;;0.90;0.90;;;19.10;77.20;;;;;;5108316;27;43476;-71
2023/10/24 05:01:51;;;;;;;1.00;1.00;;;19.10;77.20;;;;;;5106406;27;43489;-71
2023/10/24 05:04:21;;;;;;;1.00;1.00;;;19.10;77.40;;;;;;5107099;27;44076;-71
2023/10/24 05:06:51;;;;;;;1.10;1.10;;;19.10;77.80;;;;;;5108503;27;43415;-71
2023/10/24 05:09:19;;;;;;;1.00;1.00;;;19.10;77.50;;;;;;5109227;27;43420;-71
2023/10/24 05:11:47;;;;;;;1.00;1.00;;;19.20;77.00;;;;;;5108531;27;43410;-70
2023/10/24 05:14:15;;;;;;;1.00;1.00;;;19.40;76.70;;;;;;5109127;27;43924;-70
2023/10/24 05:16:46;;;;;;;1.03;1.03;;;19.50;76.20;;;;;;5108811;27;43358;-71
2023/10/24 05:19:16;;;;;;;1.00;1.00;;;19.50;76.00;;;;;;5108903;27;43448;-71
2023/10/24 05:21:44;;;;;;;1.00;1.00;;;19.50;75.90;;;;;;5107411;27;43612;-71
2023/10/24 05:24:13;;;;;;;1.00;1.00;;;19.50;76.10;;;;;;5107274;27;45418;-71
2023/10/24 05:26:41;;;;;;;1.27;1.27;;;19.30;76.10;;;;;;5108576;27;43413;-70
2023/10/24 05:29:09;;;;;;;1.00;1.00;;;19.30;76.70;;;;;;5106008;27;43887;-71
2023/10/24 05:31:37;;;;;;;0.90;0.90;;;19.30;77.00;;;;;;5108455;27;43483;-71
2023/10/24 05:34:05;;;;;;;0.90;0.90;;;19.30;76.90;;;;;;5108620;27;43957;-71
2023/10/24 05:36:33;;;;;;;0.90;0.90;;;19.20;76.80;;;;;;5111924;27;43403;-70
2023/10/24 05:39:01;;;;;;;1.00;1.00;;;19.20;76.90;;;;;;5112029;27;43390;-71
2023/10/24 05:41:37;;;;;;;1.10;1.10;;;19.20;77.20;;;;;;5112408;27;43448;-70
2023/10/24 05:44:05;;;;;;;0.93;0.93;;;19.10;78.20;;;;;;5112055;27;43608;-70
2023/10/24 05:46:33;;;;;;;1.00;1.00;;;19.10;77.20;;;;;;5112606;27;43865;-66
2023/10/24 05:49:03;;;;;;;0.90;0.90;;;19.10;77.10;;;;;;5112905;27;43851;-66
2023/10/24 05:51:33;;;;;;;0.97;0.97;;;19.10;77.10;;;;;;5111633;27;43529;-67
2023/10/24 05:54:01;;;;;;;1.00;1.00;;;19.10;77.20;;;;;;5108254;27;44813;-66
2023/10/24 05:56:36;;;;;;;1.00;1.00;;;19.10;77.40;;;;;;5108712;27;43498;-68
2023/10/24 05:59:04;;;;;;;2.10;1.60;;;19.10;77.80;;;;;;5112908;27;43413;-67
2023/10/24 06:01:32;;;;;;;4.67;2.20;;;19.20;77.50;;;;;;5110338;27;43446;-66
2023/10/24 06:04:03;;;;;;;7.43;2.40;;;19.20;76.90;;;;;;5112202;27;43870;-66
2023/10/24 06:06:31;;;;;;;3.93;2.37;;;19.40;76.60;;;;;;5112575;27;43439;-67
2023/10/24 06:08:59;;;;;;;5.23;2.50;;;19.50;76.10;;;;;;5112523;27;43484;-67
2023/10/24 06:16:04;;;;;;;5.43;2.77;;;19.40;75.90;;;;;;3985908;27;46173;-67
2023/10/24 06:21:58;;;;;;;7.93;3.20;;;19.30;76.80;;;;;;5103913;27;43380;-67
2023/10/24 06:24:26;;;;;;;3.63;2.97;;;19.20;76.80;;;;;;5112395;27;43413;-66
2023/10/24 06:26:59;;;;;;;3.00;2.67;;;19.20;76.70;;;;;;5111717;27;43769;-66
2023/10/24 06:29:32;;;;;;;4.13;3.00;;;19.20;76.70;;;;;;5111814;27;43438;-66
2023/10/24 06:32:03;;;;;;;5.60;3.40;;;19.20;76.90;;;;;;5111457;27;43360;-68
2023/10/24 06:34:35;;;;;;;5.77;3.27;;;19.10;77.30;;;;;;5110997;27;43406;-66
2023/10/24 06:37:03;;;;;;;5.03;3.10;;;19.20;77.40;;;;;;5110680;27;45896;-67
2023/10/24 06:39:32;;;;;;;6.03;3.60;;;19.30;77.00;;;;;;5106652;27;44649;-66
2023/10/24 06:42:01;;;;;;;3.97;3.03;;;19.30;76.70;;;;;;5109819;27;43419;-66
2023/10/24 06:44:31;;;;;;;6.27;3.10;;;19.30;76.40;;;;;;5112348;27;43591;-66
2023/10/24 06:46:59;;;;;;;4.97;3.43;;;19.30;76.60;;;;;;5110898;27;43968;-66
2023/10/24 06:49:28;;;;;;;4.33;3.10;;;19.30;76.80;;;;;;5111561;27;43397;-66
2023/10/24 06:51:56;;;;;;;4.83;3.53;;;19.30;76.70;;;;;;5111224;27;43363;-66
2023/10/24 06:54:24;;;;;;;2.90;2.70;;;19.30;76.50;;;;;;5112041;27;43411;-67
2023/10/24 06:56:55;;;;;;;4.37;3.30;;;19.20;76.60;;;;;;5109954;27;46131;-69
2023/10/24 06:59:24;;;;;;;4.90;3.17;;;19.20;76.70;;;;;;5109269;27;44892;-69
2023/10/24 07:02:03;;;;;;;4.70;3.43;;;19.20;77.30;;;;;;5109339;27;43447;-69
2023/10/24 07:04:45;;;;;;;3.50;3.10;;;19.20;77.20;;;;;;5111408;27;43409;-69
2023/10/24 07:07:13;;;;;;;3.20;2.97;;;19.10;76.90;;;;;;5111320;27;43615;-69
2023/10/24 07:09:44;;;;;;;3.37;2.93;;;19.10;76.90;;;;;;5111456;27;43490;-68
2023/10/24 07:12:12;;;;;;;3.97;3.10;;;19.10;77.10;;;;;;5111205;27;43369;-69
2023/10/24 07:14:46;;;;;;;3.40;3.10;;;19.10;77.30;;;;;;5112318;27;43519;-69
2023/10/24 07:17:14;;;;;;;3.03;2.83;;;19.10;77.60;;;;;;5108924;27;43824;-68
2023/10/24 07:19:43;;;;;;;3.23;3.00;;;19.20;77.40;;;;;;5111521;27;43494;-69
2023/10/24 07:22:11;;;;;;;3.13;2.90;;;19.30;76.90;;;;;;5112170;27;43394;-69
2023/10/24 07:24:47;;;;;;;3.37;3.03;;;19.40;76.40;;;;;;5112297;27;43419;-69
2023/10/24 07:27:15;;;;;;;3.40;2.90;;;19.50;76.00;;;;;;5111701;27;44002;-69
2023/10/24 07:29:46;;;;;;;3.20;2.73;;;19.50;75.80;;;;;;5110950;27;43550;-69
2023/10/24 07:32:14;;;;;;;2.90;2.70;;;19.50;75.90;;;;;;5111704;27;43398;-69
2023/10/24 07:34:44;;;;;;;2.60;2.50;;;19.40;75.90;;;;;;5111827;27;43952;-69
2023/10/24 07:37:11;;;;;;;3.07;2.77;;;19.40;76.20;;;;;;5109458;27;43818;-69
2023/10/24 07:39:41;;;;;;;2.90;2.70;;;19.30;76.80;;;;;;5111618;27;43445;-69
2023/10/24 07:42:11;;;;;;;2.90;2.70;;;19.30;76.80;;;;;;5111520;27;43658;-69
2023/10/24 07:44:46;;;;;;;2.40;2.30;;;19.20;76.60;;;;;;5103755;27;43485;-69
2023/10/24 07:47:14;;;;;;;3.07;2.87;;;19.20;76.60;;;;;;5111320;27;44757;-68
2023/10/24 07:49:46;;;;;;;3.07;2.87;;;19.20;76.90;;;;;;5109426;27;44608;-69
2023/10/24 07:52:14;;;;;;;3.43;3.13;;;19.10;77.20;;;;;;5109721;27;43472;-68
2023/10/24 07:54:45;;;;;;;3.03;2.83;;;19.10;77.30;;;;;;5111891;27;43411;-68
2023/10/24 07:57:13;;;;;;;2.80;2.70;;;19.10;77.10;;;;;;5110255;27;43947;-69
2023/10/24 07:59:41;;;;;;;2.97;2.67;;;19.10;77.00;;;;;;5109610;27;43857;-69
2023/10/24 08:02:11;;;;;;;2.97;2.80;;;19.10;77.10;;;;;;5109718;27;43453;-69
2023/10/24 08:04:59;;;;;;;2.70;2.60;;;19.10;77.30;;;;;;5109836;27;43375;-69
2023/10/24 08:07:34;;;;;;;2.73;2.60;;;19.10;77.60;;;;;;5109886;27;43619;-66
2023/10/24 08:10:03;;;;;;;3.10;2.90;;;19.10;77.30;;;;;;5108109;27;43515;-66
2023/10/24 08:12:31;;;;;;;2.50;2.40;;;19.10;77.20;;;;;;5110978;27;43373;-66
2023/10/24 08:14:59;;;;;;;3.20;2.90;;;19.00;77.10;;;;;;5110269;27;43375;-65
2023/10/24 08:17:27;;;;;;;3.00;2.80;;;19.00;77.30;;;;;;5110286;27;43609;-66
2023/10/24 08:19:57;;;;;;;2.73;2.63;;;19.00;77.80;;;;;;5110302;27;43451;-65
2023/10/24 08:22:25;;;;;;;3.00;2.90;;;19.10;77.50;;;;;;5111015;27;43510;-66
2023/10/24 08:24:53;;;;;;;2.73;2.50;;;19.20;77.00;;;;;;5109344;27;43575;-66
2023/10/24 08:27:21;;;;;;;3.00;2.87;;;19.40;76.60;;;;;;5110381;27;43617;-67
2023/10/24 08:29:49;;;;;;;2.70;2.50;;;19.50;76.20;;;;;;5109634;27;43552;-66
2023/10/24 08:32:17;;;;;;;2.50;2.43;;;19.50;75.90;;;;;;5110404;27;43472;-66
2023/10/24 08:34:45;;;;;;;2.50;2.40;;;19.50;75.90;;;;;;5106558;27;43453;-65
2023/10/24 08:37:15;;;;;;;2.53;2.33;;;19.40;76.00;;;;;;5110127;27;43868;-66
2023/10/24 08:39:46;;;;;;;2.40;2.30;;;19.30;76.10;;;;;;5110186;27;43435;-67
2023/10/24 08:42:14;;;;;;;2.40;2.30;;;19.30;76.90;;;;;;5108579;27;43425;-67
2023/10/24 08:44:53;;;;;;;2.50;2.40;;;19.30;76.90;;;;;;5109156;27;43586;-67
2023/10/24 08:47:32;;;;;;;2.10;2.10;;;19.20;76.60;;;;;;5105394;27;44053;-67
2023/10/24 08:50:09;;;;;;;2.00;2.00;;;19.20;76.70;;;;;;5102959;27;43432;-67
2023/10/24 08:52:47;;;;;;;2.23;2.13;;;19.20;76.90;;;;;;5107423;27;43492;-66
2023/10/24 08:55:33;;;;;;;2.43;2.33;;;19.10;77.50;;;;;;5110335;27;43762;-66
2023/10/24 08:58:07;;;;;;;2.77;2.67;;;19.10;77.30;;;;;;5109584;27;43628;-66
2023/10/24 09:00:49;;;;;;;2.63;2.53;;;19.30;76.90;;;;;;5103256;27;43328;-69
2023/10/24 09:03:30;;;;;;;2.60;2.50;;;19.40;76.70;;;;;;5108163;27;43376;-66
2023/10/24 09:06:28;;;;;;;2.40;2.30;;;19.30;76.40;;;;;;5108992;27;43588;-66
2023/10/24 09:09:16;;;;;;;2.30;2.20;;;19.30;76.80;;;;;;5109674;27;43651;-67
2023/10/24 09:12:07;;;;;;;2.57;2.47;;;19.30;76.70;;;;;;5107956;27;43398;-65
2023/10/24 09:15:14;;;;;;;2.07;2.00;;;19.30;76.60;;;;;;5109515;27;43375;-66
2023/10/24 09:18:00;;;;;;;2.40;2.30;;;19.20;76.60;;;;;;5101070;27;43526;-65
2023/10/24 09:20:45;;;;;;;2.40;2.30;;;19.20;76.90;;;;;;5105305;27;43933;-66
2023/10/24 09:23:17;;;;;;;2.57;2.47;;;19.10;77.30;;;;;;5109154;27;43377;-66
2023/10/24 09:26:00;;;;;;;2.27;2.17;;;19.10;77.10;;;;;;5109172;27;43393;-66
2023/10/24 09:28:30;;;;;;;2.03;2.03;;;19.10;77.10;;;;;;5109717;27;43450;-66
2023/10/24 09:31:18;;;;;;;2.13;2.13;;;19.10;77.10;;;;;;5107162;27;44825;-66
2023/10/24 09:34:05;;;;;;;2.30;2.20;;;19.00;77.30;;;;;;5104727;27;43298;-67
2023/10/24 09:36:52;;;;;;;1.90;1.90;;;19.10;77.60;;;;;;5106750;27;43428;-67
2023/10/24 09:39:22;;;;;;;2.00;2.00;;;19.20;77.30;;;;;;5107103;27;43496;-67
2023/10/24 09:42:08;;;;;;;1.90;1.90;;;19.30;77.00;;;;;;5108484;27;43871;-66
2023/10/24 09:48:16;;;;;;;1.80;1.80;;;19.20;77.00;;;;;;5081430;28;43479;-66
2023/10/24 09:50:52;;;;;;;2.20;2.10;;;19.30;77.10;;;;;;5086341;28;43524;-66
2023/10/24 09:53:28;;;;;;;1.90;1.90;;;19.30;76.90;;;;;;5086217;28;43607;-66
2023/10/24 09:56:05;;;;;;;2.00;2.00;;;19.20;76.70;;;;;;5086214;28;44016;-66
2023/10/24 09:59:02;;;;;;;2.07;1.97;;;19.20;76.80;;;;;;5086640;28;43461;-66
2023/10/24 10:01:50;;;;;;;2.07;1.97;;;19.10;77.20;;;;;;5067931;28;43988;-65
2023/10/24 10:04:47;;;;;;;1.73;1.73;;;19.10;77.40;;;;;;5086108;28;43907;-67
2023/10/24 10:07:58;;;;;;;1.90;1.90;;;19.10;77.10;;;;;;5085158;28;43537;-66
2023/10/24 10:10:57;;;;;;;2.03;2.03;;;19.10;77.10;;;;;;5064027;28;43534;-66
2023/10/24 10:13:38;;;;;;;26.67;3.03;;;19.10;77.20;;;;;;5068106;28;43599;-66
2023/10/24 10:16:31;;;;;;;110.30;6.77;;;19.00;76.90;;;;;;5085479;28;43595;-71
2023/10/24 10:19:46;;;;;;;47.50;4.13;;;19.10;76.30;;;;;;5068039;28;44798;-70
2023/10/24 10:22:25;;;;;;;24.87;3.93;;;19.20;76.10;;;;;;5068814;28;43991;-70
2023/10/24 10:25:39;;;;;;;19.83;2.70;;;19.40;75.90;;;;;;5083357;28;44016;-71
2023/10/24 10:28:21;;;;;;;16.10;2.53;;;19.50;75.60;;;;;;5069155;28;45435;-69
2023/10/24 10:31:07;;;;;;;11.33;2.80;;;19.50;75.50;;;;;;5070425;28;43825;-69
2023/10/24 10:34:19;;;;;;;3.47;1.90;;;19.40;75.60;;;;;;5073258;28;43450;-68
2023/10/24 10:37:12;;;;;;;6.77;2.30;;;19.40;76.00;;;;;;5073724;27;43399;-68
2023/10/24 10:40:28;;;;;;;7.77;2.43;;;19.30;76.50;;;;;;5070380;28;45848;-69
2023/10/24 10:43:00;;;;;;;4.10;1.90;;;19.20;76.70;;;;;;5023071;28;44496;-69
2023/10/24 10:45:42;;;;;;;3.73;2.03;;;19.20;76.60;;;;;;5080586;28;43873;-69
2023/10/24 10:48:18;;;;;;;2.07;1.93;;;19.20;76.60;;;;;;5072796;28;43479;-69
2023/10/24 10:51:23;;;;;;;4.73;2.20;;;19.10;76.70;;;;;;5082722;27;43615;-68
2023/10/24 10:54:01;;;;;;;3.10;2.13;;;19.10;77.30;;;;;;5072003;28;44383;-69
2023/10/24 10:56:48;;;;;;;2.73;2.00;;;19.20;77.10;;;;;;5089223;27;43503;-68
2023/10/24 11:03:49;;;;;;;2.37;2.20;;;19.30;76.40;;;;;;5098058;27;43801;-68
2023/10/24 11:06:38;;;;;;;1.80;1.70;;;19.30;76.70;;;;;;5110277;27;44613;-68
2023/10/24 11:10:05;;;;;;;3.27;2.07;;;19.30;76.70;;;;;;5111285;27;43358;-68
2023/10/24 11:13:03;;;;;;;1.93;1.70;;;19.30;76.50;;;;;;5107544;27;43581;-69
2023/10/24 11:15:59;;;;;;;1.90;1.80;;;19.20;76.50;;;;;;5109468;27;44257;-70
2023/10/24 11:19:00;;;;;;;2.40;2.30;;;19.20;76.90;;;;;;5107740;27;44994;-69
2023/10/24 11:21:51;;;;;;;2.27;2.10;;;19.10;77.10;;;;;;5108208;27;43381;-70
2023/10/24 11:28:34;;;;;;;2.50;1.80;;;19.10;76.90;;;;;;5095119;27;44011;-71
2023/10/24 11:31:36;;;;;;;6.73;2.20;;;19.10;77.00;;;;;;5105926;27;44412;-71
2023/10/24 11:34:42;;;;;;;4.87;2.00;;;19.10;76.90;;;;;;5107844;27;44017;-71
2023/10/24 11:37:46;;;;;;;3.60;1.97;;;19.20;76.60;;;;;;5106094;27;43330;-69
2023/10/24 11:40:28;;;;;;;2.30;1.90;;;19.30;76.30;;;;;;5125645;27;45391;-69
2023/10/24 11:43:21;;;;;;;2.37;2.00;;;19.30;76.10;;;;;;5106588;27;43392;-69
2023/10/24 11:46:10;;;;;;;2.10;1.90;;;19.30;76.00;;;;;;5107619;27;43386;-70
2023/10/24 11:49:07;;;;;;;6.03;2.67;;;19.30;76.40;;;;;;5105561;27;44506;-70
2023/10/24 11:52:11;;;;;;;2.17;2.07;;;19.30;76.30;;;;;;5106954;27;43995;-71
2023/10/24 11:55:07;;;;;;;1.83;1.83;;;19.30;76.20;;;;;;5108468;27;44470;-71
2023/10/24 11:58:36;;;;;;;1.77;1.67;;;19.20;76.30;;;;;;5107460;27;43450;-70
2023/10/24 12:01:58;;;;;;;2.50;2.30;;;19.20;77.00;;;;;;5108811;27;44033;-70
2023/10/24 12:04:48;;;;;;;1.70;1.60;;;19.20;76.90;;;;;;5103839;27;45750;-71
2023/10/24 12:07:46;;;;;;;1.50;1.50;;;19.10;76.70;;;;;;5108474;27;43546;-71
2023/10/24 12:11:08;;;;;;;1.50;1.50;;;19.10;76.90;;;;;;5106815;27;43798;-71
2023/10/24 12:13:58;;;;;;;1.70;1.70;;;19.10;77.30;;;;;;5106146;27;43463;-71
2023/10/24 12:16:41;;;;;;;1.63;1.63;;;19.10;77.40;;;;;;5106997;27;45845;-70
2023/10/24 12:19:35;;;;;;;1.90;1.80;;;19.20;77.00;;;;;;5105269;27;44419;-70
2023/10/24 12:22:55;;;;;;;3.40;1.60;;;19.30;76.70;;;;;;5106513;27;43424;-69
2023/10/24 12:25:59;;;;;;;1.90;1.80;;;19.30;76.40;;;;;;5064016;27;44090;-71
2023/10/24 12:28:57;;;;;;;1.70;1.60;;;19.30;76.80;;;;;;5107818;27;43614;-71
2023/10/24 12:31:34;;;;;;;1.57;1.47;;;19.30;76.70;;;;;;5108975;27;43986;-71
2023/10/24 12:34:12;;;;;;;1.50;1.50;;;19.20;76.50;;;;;;5101207;27;43797;-70
2023/10/24 12:37:07;;;;;;;1.60;1.60;;;19.20;76.60;;;;;;5108789;27;43756;-71
2023/10/24 12:39:58;;;;;;;1.50;1.50;;;19.20;76.90;;;;;;5106472;27;45464;-71
2023/10/24 12:42:53;;;;;;;1.30;1.30;;;19.10;77.20;;;;;;5106699;27;44665;-70
2023/10/24 12:45:55;;;;;;;1.50;1.50;;;19.10;77.00;;;;;;5104273;27;43349;-69
2023/10/24 12:48:35;;;;;;;1.50;1.40;;;19.10;77.00;;;;;;5105122;27;43893;-70
2023/10/24 12:58:49;;;;;;;1.30;1.30;;;19.10;77.40;;;;;;5025109;28;43629;-70
2023/10/24 13:01:44;;;;;;;1.50;1.50;;;19.30;76.80;;;;;;5033433;28;43720;-70
2023/10/24 13:04:44;;;;;;;1.80;1.70;;;19.40;76.30;;;;;;5040460;28;45426;-69
2023/10/24 13:07:41;;;;;;;1.50;1.40;;;19.40;76.10;;;;;;5008278;28;44542;-70
2023/10/24 13:10:35;;;;;;;1.50;1.50;;;19.40;76.20;;;;;;5030243;28;43418;-69
2023/10/24 13:13:58;;;;;;;1.60;1.60;;;19.30;76.40;;;;;;5024356;28;43464;-70
2023/10/24 13:16:56;;;;;;;1.83;1.73;;;19.20;76.70;;;;;;5024975;28;43621;-69
2023/10/24 13:19:46;;;;;;;1.50;1.50;;;19.20;77.10;;;;;;5020282;28;43508;-69
2023/10/24 13:22:26;;;;;;;1.40;1.40;;;19.20;77.00;;;;;;5024888;28;43939;-69
2023/10/24 13:25:03;;;;;;;1.47;1.47;;;19.10;76.90;;;;;;5025744;28;43882;-69
2023/10/24 13:27:45;;;;;;;1.30;1.30;;;19.10;77.10;;;;;;5011912;28;45363;-69
2023/10/24 13:30:22;;;;;;;1.30;1.30;;;19.00;77.40;;;;;;5018091;28;43468;-69
2023/10/24 13:33:11;;;;;;;1.30;1.30;;;19.10;77.70;;;;;;5024950;28;43424;-69
2023/10/24 13:36:08;;;;;;;1.50;1.50;;;19.10;77.50;;;;;;5025492;28;43419;-69
2023/10/24 13:38:45;;;;;;;1.30;1.30;;;19.10;77.30;;;;;;5022924;28;43866;-69
2023/10/24 13:41:37;;;;;;;1.40;1.40;;;19.00;77.40;;;;;;5018645;28;44962;-69
2023/10/24 13:44:16;;;;;;;1.50;1.50;;;19.00;77.70;;;;;;5024512;28;43427;-69
2023/10/24 13:47:09;;;;;;;1.43;1.43;;;19.00;77.80;;;;;;5026413;28;43496;-70
2023/10/24 13:49:49;;;;;;;1.50;1.50;;;19.20;77.40;;;;;;5024768;28;44054;-70
2023/10/24 13:52:21;;;;;;;1.40;1.40;;;19.30;77.50;;;;;;5022669;28;43434;-70
2023/10/24 13:55:06;;;;;;;1.40;1.40;;;19.40;76.30;;;;;;5025162;28;43408;-70
2023/10/24 13:57:43;;;;;;;1.43;1.20;;;19.50;76.10;;;;;;5028476;28;43637;-70
2023/10/24 14:03:37;;;;;;;1.30;1.30;;;19.40;76.10;;;;;;5023440;28;44592;-71